createdAt,value
2022-09-25T00:01:32.437Z,95047.41
2022-09-25T00:03:59.495Z,95049.59
2022-09-25T00:06:27.665Z,95044.34
2022-09-25T00:08:54.783Z,95047.09
2022-09-25T00:11:27.876Z,95047.91
2022-09-25T00:13:55.851Z,95043.13
2022-09-25T00:16:25.788Z,95041.00
2022-09-25T00:18:52.371Z,95036.56
2022-09-25T00:21:19.110Z,95041.13
2022-09-25T00:23:46.449Z,95030.78
2022-09-25T00:26:15.216Z,95035.38
2022-09-25T00:28:43.356Z,95033.22
2022-09-25T00:31:11.220Z,95033.44
2022-09-25T00:33:37.872Z,95031.72
2022-09-25T00:36:10.234Z,95037.09
2022-09-25T00:38:38.319Z,95025.16
2022-09-25T00:41:06.145Z,95030.63
2022-09-25T00:43:41.075Z,95022.47
2022-09-25T00:46:13.002Z,95022.81
2022-09-25T00:48:51.755Z,95021.88
2022-09-25T00:51:21.985Z,95022.91
2022-09-25T00:53:49.268Z,95020.06
2022-09-25T00:56:15.946Z,95022.69
2022-09-25T00:58:42.516Z,95022.22
2022-09-25T01:01:09.551Z,95019.38
2022-09-25T01:03:36.798Z,95027.13
2022-09-25T01:06:04.032Z,95027.78
2022-09-25T01:08:31.993Z,95023.81
2022-09-25T01:10:58.614Z,95024.94
2022-09-25T01:13:26.268Z,95027.22
2022-09-25T01:16:20.366Z,95024.38
2022-09-25T01:18:55.379Z,95029.03
2022-09-25T01:21:52.867Z,95035.94
2022-09-25T01:24:41.261Z,95030.50
2022-09-25T01:27:40.138Z,95018.81
2022-09-25T01:30:11.158Z,95011.09
2022-09-25T01:32:46.812Z,95008.81
2022-09-25T01:35:34.879Z,95011.53
2022-09-25T01:38:23.586Z,95007.59
2022-09-25T01:41:03.535Z,95004.06
2022-09-25T01:43:46.200Z,95001.97
2022-09-25T01:46:16.647Z,95001.53
2022-09-25T01:48:46.655Z,94994.03
2022-09-25T01:51:19.273Z,95000.16
2022-09-25T01:53:51.610Z,94997.31
2022-09-25T01:56:28.063Z,94996.41
2022-09-25T01:59:00.037Z,95002.53
2022-09-25T02:01:31.754Z,95001.63
2022-09-25T02:04:09.126Z,94999.56
2022-09-25T02:06:38.198Z,95002.19
2022-09-25T02:09:38.078Z,95001.25
2022-09-25T02:12:20.734Z,95003.38
2022-09-25T02:14:57.519Z,95003.28
2022-09-25T02:17:33.511Z,95002.03
2022-09-25T02:20:00.099Z,95011.66
2022-09-25T02:22:31.922Z,94999.84
2022-09-25T02:25:10.062Z,95010.59
2022-09-25T02:27:36.569Z,95003.09
2022-09-25T02:30:03.818Z,95005.38
2022-09-25T02:32:32.153Z,95002.88
2022-09-25T02:34:59.497Z,95011.38
2022-09-25T02:37:26.546Z,95009.31
2022-09-25T02:39:57.369Z,95010.44
2022-09-25T02:42:43.758Z,95004.88
2022-09-25T02:45:27.313Z,95005.22
2022-09-25T02:48:10.017Z,95006.81
2022-09-25T02:50:47.533Z,95005.66
2022-09-25T02:53:27.919Z,94999.09
2022-09-25T02:56:02.998Z,95001.50
2022-09-25T02:58:37.109Z,94997.63
2022-09-25T03:01:08.249Z,94994.56
2022-09-25T03:03:37.471Z,94992.34
2022-09-25T03:06:06.207Z,94993.13
2022-09-25T03:08:37.925Z,94993.91
2022-09-25T03:11:13.330Z,94986.91
2022-09-25T03:13:41.210Z,94977.59
2022-09-25T03:16:14.612Z,94965.94
2022-09-25T03:18:41.483Z,94965.59
2022-09-25T03:21:08.010Z,94968.63
2022-09-25T03:23:34.570Z,94970.56
2022-09-25T03:26:01.350Z,94980.97
2022-09-25T03:28:27.962Z,94972.38
2022-09-25T03:31:06.042Z,94967.59
2022-09-25T03:33:40.242Z,94970.66
2022-09-25T03:36:08.400Z,94964.44
2022-09-25T03:38:34.889Z,94965.63
2022-09-25T03:41:02.524Z,94971.31
2022-09-25T03:43:29.147Z,94958.88
2022-09-25T03:45:55.734Z,94967.03
2022-09-25T03:48:22.340Z,94971.66
2022-09-25T03:50:48.919Z,94967.34
2022-09-25T03:53:15.464Z,94976.63
2022-09-25T03:55:41.997Z,94969.59
2022-09-25T03:58:08.538Z,94976.19
2022-09-25T04:00:35.063Z,94973.13
2022-09-25T04:03:01.613Z,94967.69
2022-09-25T04:05:28.175Z,94960.66
2022-09-25T04:07:54.649Z,94963.03
2022-09-25T04:10:21.183Z,94966.53
2022-09-25T04:12:47.738Z,94970.88
2022-09-25T04:15:14.291Z,94965.44
2022-09-25T04:17:40.791Z,94950.38
2022-09-25T04:20:07.797Z,94948.44
2022-09-25T04:22:34.260Z,94949.22
2022-09-25T04:25:00.813Z,94958.31
2022-09-25T04:27:27.372Z,94955.25
2022-09-25T04:29:53.883Z,94957.97
2022-09-25T04:32:20.460Z,94953.78
2022-09-25T04:34:46.955Z,94962.75
2022-09-25T04:37:13.649Z,94953.13
2022-09-25T04:39:40.387Z,94954.72
2022-09-25T04:42:07.179Z,94956.75
2022-09-25T04:44:33.749Z,94958.03
2022-09-25T04:47:00.218Z,94954.16
2022-09-25T04:49:26.758Z,94943.72
2022-09-25T04:51:53.230Z,94944.22
2022-09-25T04:54:22.060Z,94954.06
2022-09-25T04:56:49.955Z,94952.13
2022-09-25T04:59:16.608Z,94955.66
2022-09-25T05:01:43.667Z,94957.69
2022-09-25T05:04:10.480Z,94964.72
2022-09-25T05:06:37.151Z,94963.63
2022-09-25T05:09:03.861Z,94961.34
2022-09-25T05:11:30.374Z,94974.59
2022-09-25T05:13:56.922Z,94969.94
2022-09-25T05:16:23.560Z,94971.56
2022-09-25T05:18:50.106Z,94970.53
2022-09-25T05:21:16.715Z,94981.88
2022-09-25T05:23:43.177Z,94967.47
2022-09-25T05:26:09.763Z,94976.09
2022-09-25T05:28:36.433Z,94976.88
2022-09-25T05:31:04.292Z,94972.25
2022-09-25T05:33:32.478Z,94975.75
2022-09-25T05:36:03.835Z,94976.69
2022-09-25T05:38:33.019Z,94970.91
2022-09-25T05:41:10.200Z,94977.47
2022-09-25T05:43:45.541Z,94968.84
2022-09-25T05:46:12.345Z,94973.50
2022-09-25T05:48:39.010Z,94972.69
2022-09-25T05:51:05.922Z,94974.31
2022-09-25T05:53:32.850Z,94974.63
2022-09-25T05:56:03.791Z,94972.69
2022-09-25T05:58:32.315Z,94973.50
2022-09-25T06:01:03.867Z,94975.09
2022-09-25T06:03:30.635Z,94972.47
2022-09-25T06:05:58.793Z,94971.34
2022-09-25T06:08:25.851Z,94966.13
2022-09-25T06:10:53.808Z,94970.00
2022-09-25T06:13:21.451Z,94959.66
2022-09-25T06:15:48.070Z,94957.53
2022-09-25T06:18:14.596Z,94965.16
2022-09-25T06:20:41.171Z,94958.69
2022-09-25T06:23:07.766Z,94958.81
2022-09-25T06:25:34.297Z,94960.06
2022-09-25T06:28:01.409Z,94962.88
2022-09-25T06:30:33.728Z,94967.66
2022-09-25T06:33:01.694Z,94960.75
2022-09-25T06:35:29.626Z,94957.78
2022-09-25T06:38:00.579Z,94959.13
2022-09-25T06:40:29.295Z,94956.19
2022-09-25T06:42:57.411Z,94949.38
2022-09-25T06:45:24.910Z,94954.56
2022-09-25T06:47:51.475Z,94958.66
2022-09-25T06:50:18.012Z,94956.47
2022-09-25T06:52:44.806Z,94953.63
2022-09-25T06:55:11.820Z,94968.25
2022-09-25T06:57:38.354Z,94963.00
2022-09-25T07:00:05.794Z,94968.75
2022-09-25T07:02:32.367Z,94969.75
2022-09-25T07:04:58.916Z,94973.91
2022-09-25T07:07:25.460Z,94978.53
2022-09-25T07:09:52.383Z,94966.38
2022-09-25T07:12:18.906Z,94970.16
2022-09-25T07:14:45.560Z,94962.28
2022-09-25T07:17:13.278Z,94966.06
2022-09-25T07:19:39.830Z,94963.97
2022-09-25T07:22:06.341Z,94952.50
2022-09-25T07:24:32.878Z,94956.63
2022-09-25T07:26:59.418Z,94956.13
2022-09-25T07:29:25.909Z,94953.19
2022-09-25T07:31:52.389Z,94953.03
2022-09-25T07:34:18.945Z,94948.84
2022-09-25T07:36:45.460Z,94945.16
2022-09-25T07:39:17.556Z,94953.94
2022-09-25T07:41:45.057Z,94949.44
2022-09-25T07:44:27.773Z,94946.53
2022-09-25T07:46:55.357Z,94949.84
2022-09-25T07:49:21.831Z,94945.75
2022-09-25T07:51:48.438Z,94942.06
2022-09-25T07:54:14.948Z,94946.53
2022-09-25T07:56:41.392Z,94952.16
2022-09-25T07:59:08.011Z,94952.66
2022-09-25T08:01:38.236Z,94950.84
2022-09-25T08:04:07.626Z,94954.16
2022-09-25T08:06:35.197Z,94955.09
2022-09-25T08:09:05.592Z,94954.84
2022-09-25T08:11:34.767Z,94960.53
2022-09-25T08:14:01.278Z,94946.63
2022-09-25T08:16:27.869Z,94955.81
2022-09-25T08:18:57.193Z,94952.91
2022-09-25T08:21:23.971Z,94949.53
2022-09-25T08:23:52.570Z,94946.94
2022-09-25T08:26:21.273Z,94951.69
2022-09-25T08:28:47.932Z,94946.97
2022-09-25T08:31:15.011Z,94954.09
2022-09-25T08:33:49.452Z,94954.50
2022-09-25T08:36:17.105Z,94951.53
2022-09-25T08:38:43.668Z,94950.81
2022-09-25T08:41:18.824Z,94948.47
2022-09-25T08:44:06.058Z,94949.66
2022-09-25T08:46:56.738Z,94955.97
2022-09-25T08:49:25.931Z,94945.03
2022-09-25T08:51:59.170Z,94947.53
2022-09-25T08:54:29.772Z,94949.97
2022-09-25T08:57:00.567Z,94952.03
2022-09-25T08:59:43.660Z,94948.19
2022-09-25T09:02:20.532Z,94945.50
2022-09-25T09:04:56.439Z,94932.31
2022-09-25T09:07:39.058Z,94937.53
2022-09-25T09:10:17.277Z,94949.44
2022-09-25T09:12:48.066Z,94946.38
2022-09-25T09:15:28.040Z,94948.88
2022-09-25T09:17:55.472Z,94941.13
2022-09-25T09:20:34.337Z,94946.66
2022-09-25T09:23:00.983Z,94943.19
2022-09-25T09:25:34.239Z,94949.09
2022-09-25T09:28:12.991Z,94944.41
2022-09-25T09:31:12.909Z,94946.78
2022-09-25T09:33:57.432Z,94946.78
2022-09-25T09:36:47.047Z,94938.16
2022-09-25T09:39:35.945Z,94940.94
2022-09-25T09:42:21.358Z,94938.97
2022-09-25T09:44:57.623Z,94934.28
2022-09-25T09:47:33.302Z,94927.59
2022-09-25T09:50:30.548Z,94926.81
2022-09-25T09:53:06.007Z,94934.94
2022-09-25T09:55:47.000Z,94930.22
2022-09-25T09:58:29.810Z,94930.97
2022-09-25T10:00:56.930Z,94917.59
2022-09-25T10:03:29.875Z,94926.53
2022-09-25T10:06:03.589Z,94926.47
2022-09-25T10:08:30.229Z,94929.56
2022-09-25T10:10:57.150Z,94929.94
2022-09-25T10:13:23.590Z,94927.56
2022-09-25T10:16:15.207Z,94925.56
2022-09-25T10:19:00.625Z,94922.44
2022-09-25T10:21:37.503Z,94916.94
2022-09-25T10:24:04.160Z,94921.25
2022-09-25T10:26:38.137Z,94912.97
2022-09-25T10:29:08.767Z,94923.13
2022-09-25T10:31:39.945Z,94919.97
2022-09-25T10:34:19.802Z,94921.13
2022-09-25T10:36:52.317Z,94921.50
2022-09-25T10:39:43.602Z,94928.13
2022-09-25T10:42:40.648Z,94926.56
2022-09-25T10:45:27.167Z,94935.16
2022-09-25T10:47:53.685Z,94934.78
2022-09-25T10:50:23.122Z,94931.63
2022-09-25T10:52:51.931Z,94926.47
2022-09-25T10:55:41.166Z,94928.38
2022-09-25T10:58:10.216Z,94925.69
2022-09-25T11:00:55.851Z,94928.78
2022-09-25T11:03:25.072Z,94925.72
2022-09-25T11:06:09.861Z,94922.22
2022-09-25T11:08:38.853Z,94926.63
2022-09-25T11:11:07.228Z,94920.41
2022-09-25T11:13:38.280Z,94917.69
2022-09-25T11:16:08.139Z,94921.69
2022-09-25T11:18:42.394Z,94925.66
2022-09-25T11:21:30.438Z,94919.41
2022-09-25T11:24:04.194Z,94920.22
2022-09-25T11:26:36.221Z,94909.69
2022-09-25T11:29:12.890Z,94914.84
2022-09-25T11:31:50.055Z,94913.72
2022-09-25T11:34:34.279Z,94906.25
2022-09-25T11:37:39.513Z,94907.06
2022-09-25T11:40:29.246Z,94894.94
2022-09-25T11:43:04.528Z,94888.28
2022-09-25T11:45:37.507Z,94886.69
2022-09-25T11:48:16.545Z,94893.38
2022-09-25T11:50:59.469Z,94895.75
2022-09-25T11:53:47.961Z,94891.16
2022-09-25T11:56:20.516Z,94890.47
2022-09-25T11:59:06.689Z,94890.19
2022-09-25T12:01:42.803Z,94872.19
2022-09-25T12:04:35.870Z,94882.44
2022-09-25T12:07:19.460Z,94869.94
2022-09-25T12:10:12.901Z,94871.53
2022-09-25T12:12:51.851Z,94872.31
2022-09-25T12:15:29.922Z,94867.59
2022-09-25T12:18:02.660Z,94869.97
2022-09-25T12:20:29.130Z,94859.41
2022-09-25T12:23:23.484Z,94864.13
2022-09-25T12:26:12.536Z,94855.88
2022-09-25T12:28:48.896Z,94856.28
2022-09-25T12:31:29.475Z,94859.44
2022-09-25T12:34:11.059Z,94859.06
2022-09-25T12:36:50.558Z,94857.91
2022-09-25T12:39:32.525Z,94861.41
2022-09-25T12:42:09.632Z,94857.94
2022-09-25T12:44:53.217Z,94846.16
2022-09-25T12:47:38.673Z,94845.03
2022-09-25T12:50:13.537Z,94849.44
2022-09-25T12:52:43.585Z,94836.94
2022-09-25T12:55:21.079Z,94831.88
2022-09-25T12:58:11.979Z,94830.69
2022-09-25T13:00:43.623Z,94824.81
2022-09-25T13:03:22.295Z,94833.44
2022-09-25T13:06:05.890Z,94829.06
2022-09-25T13:09:02.424Z,94831.34
2022-09-25T13:11:37.974Z,94827.38
2022-09-25T13:14:12.580Z,94831.28
2022-09-25T13:16:39.267Z,94824.63
2022-09-25T13:19:24.245Z,94823.78
2022-09-25T13:21:51.464Z,94824.94
2022-09-25T13:24:18.459Z,94815.91
2022-09-25T13:26:51.945Z,94827.69
2022-09-25T13:29:34.852Z,94825.31
2022-09-25T13:32:20.187Z,94822.53
2022-09-25T13:34:49.847Z,94824.53
2022-09-25T13:37:16.454Z,94820.94
2022-09-25T13:39:49.100Z,94824.44
2022-09-25T13:42:34.498Z,94827.09
2022-09-25T13:45:34.386Z,94828.97
2022-09-25T13:48:09.419Z,94830.44
2022-09-25T13:50:37.140Z,94823.25
2022-09-25T13:53:09.513Z,94835.28
2022-09-25T13:55:48.619Z,94839.88
2022-09-25T13:58:22.009Z,94844.06
2022-09-25T14:00:50.612Z,94837.69
2022-09-25T14:03:36.096Z,94839.88
2022-09-25T14:06:04.628Z,94848.75
2022-09-25T14:08:33.920Z,94846.25
2022-09-25T14:11:05.076Z,94837.06
2022-09-25T14:13:33.432Z,94841.66
2022-09-25T14:16:02.205Z,94840.78
2022-09-25T14:18:39.738Z,94843.78
2022-09-25T14:21:06.618Z,94848.38
2022-09-25T14:23:33.438Z,94844.81
2022-09-25T14:26:05.268Z,94849.44
2022-09-25T14:28:53.315Z,94845.06
2022-09-25T14:31:31.611Z,94848.13
2022-09-25T14:34:21.908Z,94850.81
2022-09-25T14:37:16.131Z,94850.38
2022-09-25T14:40:02.875Z,94847.22
2022-09-25T14:42:38.415Z,94847.97
2022-09-25T14:45:24.580Z,94840.91
2022-09-25T14:47:55.928Z,94844.44
2022-09-25T14:50:36.724Z,94830.69
2022-09-25T14:53:07.236Z,94833.00
2022-09-25T14:55:39.554Z,94833.78
2022-09-25T14:58:12.703Z,94839.66
2022-09-25T15:00:46.368Z,94833.38
2022-09-25T15:03:15.632Z,94842.81
2022-09-25T15:05:47.529Z,94841.63
2022-09-25T15:08:23.450Z,94835.41
2022-09-25T15:11:10.390Z,94835.06
2022-09-25T15:13:36.940Z,94841.75
2022-09-25T15:16:05.078Z,94836.75
2022-09-25T15:18:31.686Z,94839.78
2022-09-25T15:20:58.651Z,94831.38
2022-09-25T15:23:25.365Z,94833.41
2022-09-25T15:25:55.035Z,94831.53
2022-09-25T15:28:26.611Z,94834.28
2022-09-25T15:31:01.652Z,94835.06
2022-09-25T15:33:31.226Z,94829.94
2022-09-25T15:36:02.990Z,94841.63
2022-09-25T15:38:35.357Z,94836.13
2022-09-25T15:41:03.251Z,94843.47
2022-09-25T15:43:29.878Z,94838.69
2022-09-25T15:45:58.138Z,94837.88
2022-09-25T15:48:31.438Z,94840.13
2022-09-25T15:51:00.482Z,94838.06
2022-09-25T15:53:34.950Z,94831.31
2022-09-25T15:56:06.529Z,94823.78
2022-09-25T15:58:42.527Z,94823.28
2022-09-25T16:01:12.470Z,94826.34
2022-09-25T16:03:44.755Z,94830.97
2022-09-25T16:06:16.341Z,94837.91
2022-09-25T16:08:43.422Z,94843.28
2022-09-25T16:11:23.693Z,94846.34
2022-09-25T16:14:12.418Z,94844.69
2022-09-25T16:16:46.523Z,94844.63
2022-09-25T16:19:24.996Z,94856.31
2022-09-25T16:21:52.506Z,94852.78
2022-09-25T16:24:21.923Z,94849.19
2022-09-25T16:26:55.087Z,94846.81
2022-09-25T16:29:25.208Z,94851.50
2022-09-25T16:31:52.701Z,94851.13
2022-09-25T16:34:28.523Z,94856.53
2022-09-25T16:36:57.878Z,94854.59
2022-09-25T16:39:26.531Z,94853.00
2022-09-25T16:41:53.395Z,94853.78
2022-09-25T16:44:31.857Z,94851.00
2022-09-25T16:46:58.293Z,94851.78
2022-09-25T16:49:24.983Z,94851.78
2022-09-25T16:51:54.039Z,94849.03
2022-09-25T16:54:22.221Z,94854.50
2022-09-25T16:56:49.125Z,94837.94
2022-09-25T16:59:21.101Z,94843.50
2022-09-25T17:01:50.107Z,94845.09
2022-09-25T17:04:22.018Z,94841.94
2022-09-25T17:06:48.527Z,94837.22
2022-09-25T17:09:16.925Z,94840.31
2022-09-25T17:11:46.269Z,94837.13
2022-09-25T17:14:23.255Z,94838.59
2022-09-25T17:16:53.888Z,94847.53
2022-09-25T17:19:21.251Z,94851.75
2022-09-25T17:21:49.836Z,94858.31
2022-09-25T17:24:16.879Z,94852.31
2022-09-25T17:26:44.196Z,94857.72
2022-09-25T17:29:11.057Z,94849.06
2022-09-25T17:31:37.741Z,94848.19
2022-09-25T17:34:17.000Z,94859.41
2022-09-25T17:36:43.985Z,94851.50
2022-09-25T17:39:10.622Z,94859.59
2022-09-25T17:41:37.994Z,94853.28
2022-09-25T17:44:05.329Z,94851.28
2022-09-25T17:46:32.102Z,94859.41
2022-09-25T17:48:58.642Z,94860.50
2022-09-25T17:51:27.710Z,94858.13
2022-09-25T17:53:54.438Z,94856.53
2022-09-25T17:56:22.193Z,94858.84
2022-09-25T17:58:48.769Z,94856.91
2022-09-25T18:01:18.157Z,94854.53
2022-09-25T18:03:44.703Z,94865.44
2022-09-25T18:06:11.283Z,94863.88
2022-09-25T18:08:37.793Z,94868.53
2022-09-25T18:11:04.519Z,94861.88
2022-09-25T18:13:31.024Z,94871.63
2022-09-25T18:15:59.880Z,94866.88
2022-09-25T18:18:28.835Z,94875.81
2022-09-25T18:20:55.400Z,94878.09
2022-09-25T18:23:21.916Z,94873.69
2022-09-25T18:25:48.480Z,94884.19
2022-09-25T18:28:17.021Z,94890.72
2022-09-25T18:30:43.897Z,94893.75
2022-09-25T18:33:10.554Z,94891.72
2022-09-25T18:35:37.395Z,94899.03
2022-09-25T18:38:03.938Z,94894.25
2022-09-25T18:40:30.627Z,94899.66
2022-09-25T18:42:57.137Z,94894.53
2022-09-25T18:45:23.632Z,94898.44
2022-09-25T18:47:50.206Z,94892.50
2022-09-25T18:50:20.624Z,94892.50
2022-09-25T18:52:47.713Z,94894.81
2022-09-25T18:55:14.225Z,94882.31
2022-09-25T18:57:40.957Z,94882.31
2022-09-25T19:00:08.019Z,94886.97
2022-09-25T19:02:34.620Z,94893.22
2022-09-25T19:05:01.237Z,94895.94
2022-09-25T19:07:28.995Z,94900.28
2022-09-25T19:09:56.163Z,94904.16
2022-09-25T19:12:22.699Z,94902.66
2022-09-25T19:14:49.255Z,94900.34
2022-09-25T19:17:16.816Z,94902.72
2022-09-25T19:19:43.386Z,94898.09
2022-09-25T19:22:18.072Z,94913.31
2022-09-25T19:24:48.579Z,94908.28
2022-09-25T19:27:16.547Z,94905.19
2022-09-25T19:29:45.064Z,94904.06
2022-09-25T19:32:14.030Z,94913.84
2022-09-25T19:34:41.264Z,94907.22
2022-09-25T19:37:07.896Z,94909.59
2022-09-25T19:39:34.441Z,94910.84
2022-09-25T19:42:01.009Z,94909.22
2022-09-25T19:44:27.489Z,94910.84
2022-09-25T19:46:54.029Z,94917.44
2022-09-25T19:49:20.964Z,94916.22
2022-09-25T19:51:47.834Z,94917.00
2022-09-25T19:54:15.295Z,94920.88
2022-09-25T19:56:42.379Z,94919.66
2022-09-25T19:59:15.652Z,94927.03
2022-09-25T20:01:43.105Z,94925.13
2022-09-25T20:04:15.722Z,94924.31
2022-09-25T20:06:45.665Z,94925.47
2022-09-25T20:09:12.196Z,94913.38
2022-09-25T20:11:39.861Z,94916.09
2022-09-25T20:14:07.182Z,94916.47
2022-09-25T20:16:33.761Z,94913.38
2022-09-25T20:19:02.454Z,94916.91
2022-09-25T20:21:31.492Z,94911.47
2022-09-25T20:24:00.576Z,94906.78
2022-09-25T20:26:31.706Z,94909.50
2022-09-25T20:29:00.866Z,94908.72
2022-09-25T20:31:29.727Z,94912.59
2022-09-25T20:33:56.482Z,94916.47
2022-09-25T20:36:23.438Z,94917.63
2022-09-25T20:38:52.089Z,94911.34
2022-09-25T20:41:22.817Z,94920.28
2022-09-25T20:43:51.638Z,94920.63
2022-09-25T20:46:19.356Z,94915.06
2022-09-25T20:48:48.464Z,94918.50
2022-09-25T20:51:20.987Z,94920.78
2022-09-25T20:53:52.509Z,94923.03
2022-09-25T20:56:19.597Z,94925.28
2022-09-25T20:58:50.644Z,94922.47
2022-09-25T21:01:22.189Z,94921.59
2022-09-25T21:03:49.886Z,94912.19
2022-09-25T21:06:20.497Z,94916.41
2022-09-25T21:08:50.889Z,94923.00
2022-09-25T21:11:17.495Z,94921.34
2022-09-25T21:13:44.154Z,94918.16
2022-09-25T21:16:11.676Z,94927.84
2022-09-25T21:18:39.205Z,94922.63
2022-09-25T21:21:08.570Z,94916.28
2022-09-25T21:23:35.937Z,94920.50
2022-09-25T21:26:05.010Z,94913.84
2022-09-25T21:28:32.842Z,94911.81
2022-09-25T21:31:07.026Z,94905.88
2022-09-25T21:33:34.030Z,94906.22
2022-09-25T21:36:01.024Z,94915.22
2022-09-25T21:38:27.754Z,94909.31
2022-09-25T21:40:59.271Z,94919.44
2022-09-25T21:43:26.606Z,94912.72
2022-09-25T21:45:53.264Z,94915.81
2022-09-25T21:48:19.769Z,94918.53
2022-09-25T21:50:58.096Z,94917.28
2022-09-25T21:53:25.899Z,94925.13
2022-09-25T21:56:03.228Z,94921.16
2022-09-25T21:58:30.417Z,94917.28
2022-09-25T22:01:10.981Z,94927.41
2022-09-25T22:03:40.382Z,94918.88
2022-09-25T22:06:09.993Z,94918.88
2022-09-25T22:08:38.917Z,94909.88
2022-09-25T22:11:06.902Z,94918.06
2022-09-25T22:13:35.997Z,94914.72
2022-09-25T22:16:08.579Z,94911.75
2022-09-25T22:18:49.874Z,94909.03
2022-09-25T22:21:19.431Z,94914.81
2022-09-25T22:23:46.345Z,94910.50
2022-09-25T22:26:14.513Z,94907.34
2022-09-25T22:28:41.504Z,94909.75
2022-09-25T22:31:19.978Z,94920.06
2022-09-25T22:33:47.955Z,94912.31
2022-09-25T22:36:14.959Z,94915.88
2022-09-25T22:38:41.793Z,94911.53
2022-09-25T22:41:11.510Z,94908.38
2022-09-25T22:43:38.766Z,94911.09
2022-09-25T22:46:06.483Z,94913.84
2022-09-25T22:48:34.039Z,94904.88
2022-09-25T22:51:02.023Z,94904.88
2022-09-25T22:53:29.362Z,94906.94
2022-09-25T22:55:56.390Z,94901.69
2022-09-25T22:58:22.999Z,94898.59
2022-09-25T23:00:52.077Z,94913.03
2022-09-25T23:03:19.234Z,94903.72
2022-09-25T23:05:45.907Z,94904.41
2022-09-25T23:08:12.539Z,94900.53
2022-09-25T23:11:05.613Z,94904.06
2022-09-25T23:13:26.064Z,94897.03
2022-09-25T23:15:52.608Z,94896.69
2022-09-25T23:18:19.083Z,94908.38
2022-09-25T23:20:45.652Z,94896.69
2022-09-25T23:23:12.100Z,94895.09
2022-09-25T23:25:38.640Z,94893.50
2022-09-25T23:28:05.149Z,94891.13
2022-09-25T23:30:31.752Z,94887.97
2022-09-25T23:32:58.325Z,94881.72
2022-09-25T23:35:24.889Z,94882.41
2022-09-25T23:37:52.230Z,94888.56
2022-09-25T23:40:18.802Z,94886.88
2022-09-25T23:42:45.418Z,94883.72
2022-09-25T23:45:11.893Z,94887.91
2022-09-25T23:47:38.408Z,94878.84
2022-09-25T23:50:05.460Z,94882.72
2022-09-25T23:52:31.944Z,94877.25
2022-09-25T23:54:58.483Z,94884.19
2022-09-25T23:57:24.965Z,94884.53
2022-09-25T23:59:51.588Z,94880.59
